Time;durP1;ratioP1;P1;durP2;ratioP2;P2;SDS_P1;SDS_P2;PMS_P1;PMS_P2;Temp;Humidity;BMP_temperature;BMP_pressure;BME280_temperature;BME280_humidity;BME280_pressure;Samples;Min_cycle;Max_cycle;Signal;HPM_P1;HPM_P2
2020/12/11 05:01:04;;;;;;;41.27;17.33;;;0.10;99.90;;;;;;5468142;24;180454;-68
2020/12/11 05:03:34;;;;;;;49.13;18.80;;;0.10;99.90;;;;;;4644562;29;178495;-67
2020/12/11 05:06:01;;;;;;;54.70;20.10;;;0.10;99.90;;;;;;4644770;29;179524;-67
2020/12/11 05:08:27;;;;;;;56.87;18.77;;;0.10;99.90;;;;;;4647720;29;177962;-68
2020/12/11 05:10:53;;;;;;;61.97;19.90;;;0.10;99.90;;;;;;4649960;29;178571;-68
2020/12/11 05:13:21;;;;;;;65.70;20.27;;;0.10;99.90;;;;;;4661982;29;178668;-67
2020/12/11 05:16:11;;;;;;;41.20;18.57;;;0.10;99.90;;;;;;4647296;29;184094;-68
2020/12/11 05:18:39;;;;;;;83.47;21.23;;;0.10;99.90;;;;;;4648609;29;182524;-68
2020/12/11 05:21:16;;;;;;;79.00;23.87;;;0.10;99.90;;;;;;4648583;29;178033;-68
2020/12/11 05:24:00;;;;;;;50.73;20.07;;;0.20;99.90;;;;;;4632867;29;177944;-68
2020/12/11 05:26:39;;;;;;;50.37;19.43;;;0.20;99.90;;;;;;4638705;29;179054;-67
2020/12/11 05:29:05;;;;;;;48.73;19.87;;;0.20;99.90;;;;;;4632499;29;178402;-68
2020/12/11 05:31:32;;;;;;;83.20;22.50;;;0.10;99.90;;;;;;4647630;29;178734;-68
2020/12/11 05:34:14;;;;;;;67.10;21.87;;;0.20;99.90;;;;;;4649878;29;176711;-68
2020/12/11 05:36:46;;;;;;;56.87;20.90;;;0.20;99.90;;;;;;4648459;29;179172;-68
2020/12/11 05:39:16;;;;;;;49.20;18.97;;;0.10;99.90;;;;;;4649762;29;178456;-68
2020/12/11 05:41:42;;;;;;;54.67;20.77;;;0.10;99.90;;;;;;4647092;29;181417;-68
2020/12/11 05:44:28;;;;;;;60.50;21.13;;;0.10;99.90;;;;;;4650282;29;178604;-68
2020/12/11 05:46:55;;;;;;;52.70;19.57;;;0.20;99.90;;;;;;4650219;29;178681;-68
2020/12/11 05:49:28;;;;;;;46.97;19.43;;;0.10;99.90;;;;;;4648078;29;178009;-68
2020/12/11 05:52:11;;;;;;;91.70;23.60;;;0.20;99.90;;;;;;4647857;29;178112;-68
2020/12/11 05:54:47;;;;;;;115.90;24.33;;;0.20;99.90;;;;;;4649922;29;178740;-67
2020/12/11 05:57:16;;;;;;;72.90;18.83;;;0.20;99.90;;;;;;4647865;29;179274;-68
2020/12/11 05:59:44;;;;;;;52.37;18.27;;;0.20;99.90;;;;;;4651409;29;178359;-68
2020/12/11 06:02:11;;;;;;;71.00;21.13;;;0.20;99.90;;;;;;4646551;29;178090;-68
2020/12/11 06:04:38;;;;;;;70.83;19.80;;;0.20;99.90;;;;;;4647111;29;179181;-68
2020/12/11 06:07:12;;;;;;;77.27;20.57;;;0.10;99.90;;;;;;4644408;29;183053;-68
2020/12/11 06:09:40;;;;;;;91.63;21.70;;;0.10;99.90;;;;;;4647907;29;182319;-68
2020/12/11 06:12:08;;;;;;;54.77;19.50;;;0.10;99.90;;;;;;4649222;29;177855;-68
2020/12/11 06:14:50;;;;;;;37.67;17.37;;;0.20;99.90;;;;;;4644818;29;178355;-68
2020/12/11 06:17:20;;;;;;;42.77;18.43;;;0.10;99.90;;;;;;4646283;29;180476;-68
2020/12/11 06:19:49;;;;;;;52.53;19.43;;;0.10;99.90;;;;;;4647167;29;178774;-68
2020/12/11 06:22:16;;;;;;;40.40;18.00;;;0.10;99.90;;;;;;4649623;29;177965;-68
2020/12/11 06:24:42;;;;;;;52.77;19.13;;;0.10;99.90;;;;;;4642072;29;178453;-69
2020/12/11 06:27:08;;;;;;;60.70;19.47;;;0.10;99.90;;;;;;4645233;29;178694;-68
2020/12/11 06:29:40;;;;;;;47.50;17.93;;;0.20;99.90;;;;;;4643136;29;178652;-68
2020/12/11 06:32:07;;;;;;;42.30;17.37;;;0.10;99.90;;;;;;4647605;29;182537;-69
2020/12/11 06:34:34;;;;;;;57.27;18.80;;;0.10;99.90;;;;;;4650546;29;177989;-68
2020/12/11 06:37:02;;;;;;;56.10;18.70;;;0.10;99.90;;;;;;4648751;29;179298;-68
2020/12/11 06:39:43;;;;;;;63.80;19.93;;;0.10;99.90;;;;;;4649325;29;178611;-68
2020/12/11 06:42:30;;;;;;;39.70;17.80;;;0.10;99.90;;;;;;4648232;29;178080;-69
2020/12/11 06:45:22;;;;;;;51.03;18.33;;;0.10;99.90;;;;;;4649672;29;178009;-68
2020/12/11 06:47:58;;;;;;;41.37;17.77;;;0.10;99.90;;;;;;4649371;29;179627;-68
2020/12/11 06:50:30;;;;;;;35.83;17.30;;;0.10;99.90;;;;;;4646330;29;179304;-67
2020/12/11 06:52:57;;;;;;;94.77;22.40;;;0.10;99.90;;;;;;4645286;29;178063;-68
2020/12/11 06:55:49;;;;;;;41.03;17.63;;;0.10;99.90;;;;;;4646163;29;178389;-67
2020/12/11 06:58:20;;;;;;;70.37;20.60;;;0.10;99.90;;;;;;4646497;29;182652;-68
2020/12/11 07:00:57;;;;;;;42.13;17.07;;;0.10;99.90;;;;;;4648593;29;181764;-68
2020/12/11 07:03:28;;;;;;;70.67;19.53;;;0.10;99.90;;;;;;4648626;29;179274;-68
2020/12/11 07:06:05;;;;;;;188.20;29.00;;;0.10;99.90;;;;;;4649397;29;178636;-68
2020/12/11 07:08:32;;;;;;;96.77;21.20;;;0.10;99.90;;;;;;4648287;29;180693;-68
2020/12/11 07:11:04;;;;;;;38.23;16.47;;;0.10;99.90;;;;;;4648536;29;178431;-67
2020/12/11 07:13:30;;;;;;;112.63;22.17;;;0.10;99.90;;;;;;4648812;29;179107;-67
2020/12/11 07:15:58;;;;;;;62.47;20.23;;;0.20;99.90;;;;;;4650378;29;176593;-67
2020/12/11 07:18:25;;;;;;;116.40;22.27;;;0.20;99.90;;;;;;4648868;29;179380;-67
2020/12/11 07:20:53;;;;;;;99.27;20.20;;;0.20;99.90;;;;;;4648158;29;179531;-67
2020/12/11 07:23:20;;;;;;;167.70;27.53;;;0.20;99.90;;;;;;4646892;29;181363;-68
2020/12/11 07:25:48;;;;;;;57.17;18.70;;;0.20;99.90;;;;;;4648725;29;178011;-67
2020/12/11 07:28:14;;;;;;;61.27;18.83;;;0.20;99.90;;;;;;4647174;29;180912;-67
2020/12/11 07:30:45;;;;;;;37.37;16.80;;;0.20;99.90;;;;;;4646933;29;179098;-67
2020/12/11 07:33:12;;;;;;;49.03;17.40;;;0.20;99.90;;;;;;4647722;29;178411;-67
2020/12/11 07:35:49;;;;;;;40.83;17.57;;;0.20;99.90;;;;;;4648276;29;178165;-67
2020/12/11 07:38:18;;;;;;;71.73;19.40;;;0.20;99.90;;;;;;4648713;29;178572;-67
2020/12/11 07:40:52;;;;;;;84.97;20.40;;;0.20;99.90;;;;;;4648697;29;178191;-67
2020/12/11 07:43:19;;;;;;;79.23;20.57;;;0.20;99.90;;;;;;4647930;29;177982;-68
2020/12/11 07:45:46;;;;;;;59.93;19.17;;;0.20;99.90;;;;;;4648978;29;179243;-67
2020/12/11 07:48:12;;;;;;;58.70;17.87;;;0.20;99.90;;;;;;4645585;29;183389;-67
2020/12/11 07:50:39;;;;;;;107.43;21.77;;;0.20;99.90;;;;;;4648027;29;181161;-67
2020/12/11 07:53:09;;;;;;;38.57;17.20;;;0.10;99.90;;;;;;4647064;29;178724;-67
2020/12/11 07:55:37;;;;;;;98.80;21.60;;;0.20;99.90;;;;;;4645429;29;178079;-67
2020/12/11 07:58:04;;;;;;;37.93;17.10;;;0.20;99.90;;;;;;4644491;29;179559;-66
2020/12/11 08:00:36;;;;;;;41.13;17.30;;;0.20;99.90;;;;;;4648617;29;178822;-66
2020/12/11 08:03:07;;;;;;;41.27;16.63;;;0.20;99.90;;;;;;4650653;29;178742;-68
2020/12/11 08:05:38;;;;;;;59.63;20.30;;;0.20;99.90;;;;;;4651448;29;176770;-68
2020/12/11 08:08:05;;;;;;;105.50;23.20;;;0.20;99.90;;;;;;4650246;29;179461;-67
2020/12/11 08:10:40;;;;;;;64.60;19.27;;;0.20;99.90;;;;;;4650727;29;178436;-68
2020/12/11 08:13:12;;;;;;;124.53;24.63;;;0.30;99.90;;;;;;4648880;29;181282;-68
2020/12/11 08:15:40;;;;;;;77.57;21.27;;;0.30;99.90;;;;;;4651204;29;178998;-68
2020/12/11 08:18:11;;;;;;;83.23;21.80;;;0.30;99.90;;;;;;4650186;29;179151;-67
2020/12/11 08:20:49;;;;;;;40.20;18.00;;;0.30;99.90;;;;;;4650848;29;178300;-68
2020/12/11 08:23:24;;;;;;;47.97;18.13;;;0.30;99.90;;;;;;4650591;29;178020;-68
2020/12/11 08:26:17;;;;;;;70.60;22.33;;;0.30;99.90;;;;;;4650527;29;178056;-68
2020/12/11 08:28:46;;;;;;;72.43;20.87;;;0.30;99.90;;;;;;4650386;29;178708;-68
2020/12/11 08:31:22;;;;;;;47.50;19.63;;;0.30;99.90;;;;;;4650459;29;178455;-68
2020/12/11 08:33:59;;;;;;;51.90;20.30;;;0.30;99.90;;;;;;4650181;29;177882;-67
2020/12/11 08:36:26;;;;;;;47.30;20.47;;;0.30;99.90;;;;;;4650991;29;177930;-68
2020/12/11 08:39:24;;;;;;;41.80;19.50;;;0.40;99.90;;;;;;4648660;29;182745;-68
2020/12/11 08:48:04;;;;;;;44.03;19.87;;;0.40;99.90;;;;;;4650342;29;177922;-68
2020/12/11 08:50:38;;;;;;;43.37;18.80;;;0.40;99.90;;;;;;4649765;29;178661;-68
2020/12/11 08:53:08;;;;;;;43.43;18.17;;;0.40;99.90;;;;;;4642477;29;180569;-68
2020/12/11 08:55:34;;;;;;;34.47;19.00;;;0.40;99.90;;;;;;4650409;29;178064;-69
2020/12/11 08:58:01;;;;;;;36.97;18.07;;;0.40;99.90;;;;;;4651503;29;176941;-68
2020/12/11 09:00:27;;;;;;;37.67;17.70;;;0.30;99.90;;;;;;4650407;29;178950;-69
2020/12/11 09:02:53;;;;;;;41.67;19.33;;;0.40;99.90;;;;;;4649549;29;178508;-68
2020/12/11 09:05:23;;;;;;;42.43;18.63;;;0.40;99.90;;;;;;4648738;29;181282;-67
2020/12/11 09:07:52;;;;;;;37.17;17.03;;;0.30;99.90;;;;;;4648873;29;179024;-69
2020/12/11 09:10:19;;;;;;;39.40;17.57;;;0.30;99.90;;;;;;4650112;29;178574;-69
2020/12/11 09:12:50;;;;;;;35.30;17.00;;;0.40;99.90;;;;;;4649606;29;178892;-71
2020/12/11 09:15:18;;;;;;;32.47;15.37;;;0.30;99.90;;;;;;4650076;29;178056;-70
2020/12/11 09:17:45;;;;;;;37.33;16.83;;;0.30;99.90;;;;;;4650599;29;178795;-70
2020/12/11 09:20:12;;;;;;;35.40;17.03;;;0.30;99.90;;;;;;4648912;29;179364;-70
2020/12/11 09:22:38;;;;;;;35.10;17.03;;;0.30;99.90;;;;;;4650364;29;179064;-70
2020/12/11 09:25:05;;;;;;;34.57;16.93;;;0.40;99.90;;;;;;4649641;29;178975;-69
2020/12/11 09:27:34;;;;;;;33.33;16.27;;;0.30;99.90;;;;;;4649897;29;178042;-68
2020/12/11 09:30:13;;;;;;;34.73;16.30;;;0.40;99.90;;;;;;4647323;29;183330;-68
2020/12/11 09:35:26;;;;;;;32.87;16.13;;;0.40;99.90;;;;;;4650063;29;177981;-69
2020/12/11 09:37:54;;;;;;;31.53;16.87;;;0.40;99.90;;;;;;4649818;29;177865;-70
2020/12/11 09:40:44;;;;;;;30.97;15.07;;;0.40;99.90;;;;;;4648920;29;180657;-69
2020/12/11 09:48:43;;;;;;;28.00;16.33;;;0.40;99.90;;;;;;4650428;29;176326;-68
2020/12/11 09:54:07;;;;;;;32.87;16.30;;;0.40;99.90;;;;;;4649279;29;177885;-70
2020/12/11 09:56:33;;;;;;;37.73;17.00;;;0.50;99.90;;;;;;4647958;29;181267;-68
2020/12/11 09:59:06;;;;;;;32.37;15.47;;;0.40;99.90;;;;;;4649104;29;178225;-68
2020/12/11 10:01:49;;;;;;;33.07;15.70;;;0.50;99.90;;;;;;4648395;29;179313;-69
2020/12/11 10:04:16;;;;;;;33.77;16.43;;;0.40;99.90;;;;;;4649248;29;178320;-68
2020/12/11 10:06:42;;;;;;;34.67;16.10;;;0.50;99.90;;;;;;4649432;29;178612;-68
2020/12/11 10:09:08;;;;;;;34.37;15.87;;;0.40;99.90;;;;;;4648971;29;178629;-69
2020/12/11 10:11:35;;;;;;;35.77;16.83;;;0.50;99.90;;;;;;4648905;29;178045;-68
2020/12/11 10:14:36;;;;;;;32.67;15.10;;;0.50;99.90;;;;;;4649385;29;178625;-69
2020/12/11 10:16:54;;;;;;;34.00;16.47;;;0.50;99.90;;;;;;4648284;29;178079;-69
2020/12/11 10:19:22;;;;;;;35.00;17.43;;;0.50;99.90;;;;;;4647789;29;177987;-68
2020/12/11 10:21:49;;;;;;;34.50;16.60;;;0.50;99.90;;;;;;4647057;29;181957;-70
2020/12/11 10:24:17;;;;;;;29.93;15.77;;;0.50;99.90;;;;;;4648850;29;181141;-69
2020/12/11 10:26:43;;;;;;;31.70;16.03;;;0.50;99.90;;;;;;4649186;29;177881;-71
2020/12/11 10:29:09;;;;;;;30.27;15.63;;;0.50;99.90;;;;;;4648782;29;178043;-69
2020/12/11 10:31:36;;;;;;;31.67;15.50;;;0.50;99.90;;;;;;4648823;29;180081;-68
2020/12/11 10:34:02;;;;;;;29.63;15.90;;;0.50;99.90;;;;;;4648417;29;178619;-69
2020/12/11 10:36:30;;;;;;;30.37;15.43;;;0.50;99.90;;;;;;4648676;29;178543;-69
2020/12/11 10:38:57;;;;;;;28.63;15.43;;;0.50;99.90;;;;;;4649536;29;176515;-70
2020/12/11 10:41:25;;;;;;;30.00;15.03;;;0.50;99.90;;;;;;4648456;29;179396;-70
2020/12/11 10:43:52;;;;;;;31.07;16.23;;;0.50;99.90;;;;;;4648347;29;179424;-67
2020/12/11 10:46:19;;;;;;;30.73;16.47;;;0.50;99.90;;;;;;4647243;29;181919;-68
2020/12/11 10:48:46;;;;;;;32.97;15.83;;;0.50;99.90;;;;;;4648602;29;178685;-70
2020/12/11 10:51:14;;;;;;;29.20;15.23;;;0.60;99.90;;;;;;4648126;29;179256;-72
2020/12/11 10:53:44;;;;;;;33.40;15.37;;;0.50;99.90;;;;;;4648010;29;178373;-70
2020/12/11 10:56:12;;;;;;;30.33;15.80;;;0.50;99.90;;;;;;4649014;29;178574;-70
2020/12/11 10:58:38;;;;;;;32.63;16.37;;;0.50;99.90;;;;;;4648950;29;178404;-69
2020/12/11 11:01:06;;;;;;;31.70;15.80;;;0.50;99.90;;;;;;4648121;29;179379;-68
2020/12/11 11:03:34;;;;;;;30.43;15.63;;;0.50;99.90;;;;;;4649198;29;178034;-68
2020/12/11 11:06:06;;;;;;;32.23;16.70;;;0.50;99.90;;;;;;4648759;29;178339;-67
2020/12/11 11:09:07;;;;;;;30.57;16.77;;;0.50;99.90;;;;;;4648869;29;178438;-69
2020/12/11 11:11:25;;;;;;;30.50;16.23;;;0.60;99.90;;;;;;4644174;29;184699;-68
2020/12/11 11:17:12;;;;;;;30.97;15.80;;;0.60;99.90;;;;;;4648875;29;179148;-66
2020/12/11 11:22:28;;;;;;;34.10;15.57;;;0.60;99.90;;;;;;4651599;29;179449;-67
2020/12/11 11:28:00;;;;;;;34.63;16.20;;;0.60;99.90;;;;;;4641055;29;178518;-68
2020/12/11 11:30:28;;;;;;;31.77;17.03;;;0.70;99.90;;;;;;4652458;29;176508;-67
2020/12/11 11:32:55;;;;;;;34.17;16.20;;;0.70;99.90;;;;;;4647865;29;179285;-67
2020/12/11 11:35:22;;;;;;;31.40;16.53;;;0.60;99.90;;;;;;4650150;29;178685;-68
2020/12/11 11:37:49;;;;;;;33.47;16.30;;;0.60;99.90;;;;;;4649908;29;181274;-67
2020/12/11 11:40:17;;;;;;;34.97;17.03;;;0.60;99.90;;;;;;4651264;29;178059;-68
2020/12/11 11:42:43;;;;;;;36.00;17.00;;;0.60;99.90;;;;;;4650107;29;179365;-67
2020/12/11 11:45:15;;;;;;;32.70;16.53;;;0.60;99.90;;;;;;4650969;29;178310;-67
2020/12/11 11:47:44;;;;;;;37.47;17.83;;;0.60;99.90;;;;;;4651592;29;178575;-67
2020/12/11 11:53:00;;;;;;;35.07;16.33;;;0.60;99.90;;;;;;4650709;29;178840;-67
2020/12/11 11:55:26;;;;;;;31.57;16.60;;;0.60;99.90;;;;;;4651765;29;178040;-66
2020/12/11 11:57:53;;;;;;;36.07;17.63;;;0.60;99.90;;;;;;4651273;29;178195;-67
2020/12/11 12:00:20;;;;;;;35.60;16.10;;;0.60;99.90;;;;;;4650118;29;178691;-67
2020/12/11 12:02:47;;;;;;;32.20;16.80;;;0.60;99.90;;;;;;4647985;29;183431;-67
2020/12/11 12:05:14;;;;;;;31.70;16.53;;;0.60;99.90;;;;;;4650799;29;181956;-69
2020/12/11 12:07:40;;;;;;;31.33;15.73;;;0.50;99.90;;;;;;4651165;29;178676;-67
2020/12/11 12:10:09;;;;;;;36.43;17.27;;;0.50;99.90;;;;;;4650716;29;177979;-67
2020/12/11 12:12:38;;;;;;;31.73;16.47;;;0.50;99.90;;;;;;4650386;29;179343;-66
2020/12/11 12:15:09;;;;;;;35.20;17.27;;;0.50;99.90;;;;;;4650470;29;178207;-66
2020/12/11 12:17:40;;;;;;;33.20;16.57;;;0.60;99.90;;;;;;4650747;29;178373;-66
2020/12/11 12:20:10;;;;;;;33.23;16.93;;;0.60;99.90;;;;;;4650950;29;176597;-67
2020/12/11 12:30:52;;;;;;;34.60;17.40;;;0.60;99.90;;;;;;4651089;29;178509;-68
2020/12/11 12:43:58;;;;;;;34.83;17.63;;;0.50;99.90;;;;;;4650558;29;179117;-66
2020/12/11 12:46:25;;;;;;;29.00;16.07;;;0.50;99.90;;;;;;4650219;29;178225;-66
2020/12/11 12:48:51;;;;;;;35.87;17.67;;;0.60;99.90;;;;;;4648343;29;178021;-66
2020/12/11 12:51:18;;;;;;;32.30;17.23;;;0.50;99.90;;;;;;4649228;29;179853;-66
2020/12/11 12:53:44;;;;;;;31.33;16.73;;;0.60;99.90;;;;;;4645042;29;183301;-66
2020/12/11 12:59:01;;;;;;;29.63;16.13;;;0.60;99.90;;;;;;4640388;29;180508;-66
2020/12/11 13:01:41;;;;;;;27.77;16.30;;;0.60;99.90;;;;;;4645908;29;178979;-67
2020/12/11 13:04:16;;;;;;;32.37;16.43;;;0.60;99.90;;;;;;4646618;29;179678;-66
2020/12/11 13:06:44;;;;;;;33.87;17.97;;;0.60;99.90;;;;;;4644710;29;179273;-66
2020/12/11 13:09:11;;;;;;;36.33;18.10;;;0.70;99.90;;;;;;4646804;29;177883;-66
2020/12/11 13:11:37;;;;;;;34.97;18.03;;;0.60;99.90;;;;;;4643702;29;176517;-66
2020/12/11 13:14:03;;;;;;;31.37;17.03;;;0.70;99.90;;;;;;4645130;29;179184;-66
2020/12/11 13:16:30;;;;;;;36.80;17.87;;;0.60;99.90;;;;;;4647356;29;178210;-67
2020/12/11 13:18:56;;;;;;;36.73;17.97;;;0.70;99.90;;;;;;4644002;29;181777;-66
2020/12/11 13:21:32;;;;;;;38.83;18.10;;;0.70;99.90;;;;;;4645458;29;178489;-67
2020/12/11 13:26:50;;;;;;;35.70;17.67;;;1.10;99.90;;;;;;4643963;29;180314;-66
2020/12/11 13:29:16;;;;;;;35.93;17.63;;;0.70;99.90;;;;;;4647337;29;178886;-67
2020/12/11 13:31:42;;;;;;;38.57;18.20;;;0.70;99.90;;;;;;4646256;29;178411;-66
2020/12/11 13:34:09;;;;;;;39.37;19.10;;;0.70;99.90;;;;;;4644662;29;179657;-67
2020/12/11 13:36:36;;;;;;;34.33;17.90;;;0.70;99.90;;;;;;4643086;29;178377;-67
2020/12/11 13:39:04;;;;;;;33.10;17.80;;;0.70;99.90;;;;;;4643918;29;177944;-66
2020/12/11 13:41:30;;;;;;;34.67;17.77;;;0.70;99.90;;;;;;4644453;29;178641;-66
2020/12/11 13:43:57;;;;;;;36.27;18.53;;;0.80;99.90;;;;;;4634578;29;182666;-66
2020/12/11 13:46:23;;;;;;;37.47;18.47;;;0.80;99.90;;;;;;4639771;29;180963;-66
2020/12/11 13:48:49;;;;;;;37.37;18.80;;;0.70;99.90;;;;;;4641584;29;178057;-66
2020/12/11 13:51:16;;;;;;;34.57;19.00;;;0.70;99.90;;;;;;4644796;29;178150;-66
2020/12/11 13:53:43;;;;;;;40.37;18.47;;;0.80;99.90;;;;;;4643246;29;178789;-66
2020/12/11 13:56:13;;;;;;;38.23;18.80;;;0.90;99.90;;;;;;4644738;29;179064;-66
2020/12/11 13:58:40;;;;;;;38.97;19.00;;;0.80;99.90;;;;;;4646793;29;178527;-66
2020/12/11 14:01:10;;;;;;;37.17;19.10;;;0.80;99.90;;;;;;4646833;29;176483;-66
2020/12/11 14:03:36;;;;;;;41.73;20.53;;;0.70;99.90;;;;;;4645418;29;181358;-67
2020/12/11 14:06:03;;;;;;;41.00;19.33;;;0.80;99.90;;;;;;4644366;29;178548;-66
2020/12/11 14:08:29;;;;;;;37.43;18.97;;;0.80;99.90;;;;;;4643870;29;181628;-66
2020/12/11 14:10:56;;;;;;;41.47;19.70;;;0.80;99.90;;;;;;4645546;29;178482;-66
2020/12/11 14:13:22;;;;;;;38.23;19.30;;;0.80;99.90;;;;;;4643324;29;180767;-66
2020/12/11 14:15:48;;;;;;;38.70;20.53;;;0.80;99.90;;;;;;4642903;29;178085;-67
2020/12/11 14:18:23;;;;;;;39.47;19.33;;;0.90;99.90;;;;;;4643949;29;178568;-66
2020/12/11 14:23:24;;;;;;;37.47;19.33;;;1.40;99.90;;;;;;4644422;29;179591;-66
2020/12/11 14:25:51;;;;;;;38.77;19.60;;;0.90;99.90;;;;;;4646883;29;178305;-67
2020/12/11 14:28:17;;;;;;;39.53;19.23;;;0.90;99.90;;;;;;4645138;29;179136;-66
2020/12/11 14:30:44;;;;;;;39.57;19.83;;;0.90;99.90;;;;;;4644158;29;179261;-66
2020/12/11 14:33:12;;;;;;;44.37;20.27;;;0.90;99.90;;;;;;4643979;29;184776;-67
2020/12/11 14:35:38;;;;;;;39.93;19.60;;;0.90;99.90;;;;;;4628492;29;182769;-65
2020/12/11 14:38:35;;;;;;;40.17;20.00;;;0.90;99.90;;;;;;4629083;29;177957;-66
2020/12/11 14:41:02;;;;;;;38.37;19.47;;;0.90;99.90;;;;;;4629979;29;179212;-67
2020/12/11 14:43:31;;;;;;;47.57;20.57;;;0.90;99.90;;;;;;4633088;29;182131;-67
2020/12/11 14:46:02;;;;;;;40.23;20.10;;;0.90;99.90;;;;;;4643798;29;178438;-67
2020/12/11 14:48:29;;;;;;;41.10;20.30;;;0.90;99.90;;;;;;4644630;29;178812;-66
2020/12/11 14:50:56;;;;;;;41.60;20.07;;;0.90;99.90;;;;;;4648149;29;176763;-66
2020/12/11 14:53:23;;;;;;;40.50;21.27;;;0.90;99.90;;;;;;4646460;29;179378;-66
2020/12/11 14:55:50;;;;;;;39.20;19.20;;;0.90;99.90;;;;;;4648222;29;178988;-65
2020/12/11 14:58:16;;;;;;;40.97;20.37;;;0.80;99.90;;;;;;4644648;29;182751;-66
2020/12/11 15:00:46;;;;;;;38.87;19.23;;;0.90;99.90;;;;;;4652871;29;178531;-65
2020/12/11 15:03:12;;;;;;;39.97;18.67;;;0.90;99.90;;;;;;4661217;29;179880;-65
2020/12/11 15:05:39;;;;;;;40.13;19.20;;;0.90;99.90;;;;;;4646637;29;177880;-66
2020/12/11 15:08:05;;;;;;;40.87;20.00;;;0.90;99.90;;;;;;4647007;29;178526;-66
2020/12/11 15:10:31;;;;;;;90.27;22.57;;;0.90;99.90;;;;;;4648915;29;179403;-65
2020/12/11 15:12:57;;;;;;;73.87;21.10;;;0.90;99.90;;;;;;4645969;29;179227;-66
2020/12/11 15:15:23;;;;;;;43.27;19.87;;;0.90;99.90;;;;;;4662426;29;182755;-67
2020/12/11 15:17:50;;;;;;;83.97;23.77;;;0.90;99.90;;;;;;4648988;29;178354;-67
2020/12/11 15:20:16;;;;;;;103.40;25.20;;;0.90;99.90;;;;;;4648993;29;179333;-67
2020/12/11 15:22:42;;;;;;;44.67;19.77;;;0.90;99.90;;;;;;4646371;29;183089;-67
2020/12/11 15:25:09;;;;;;;40.63;20.20;;;0.90;99.90;;;;;;4648343;29;181436;-67
2020/12/11 15:27:35;;;;;;;50.53;20.83;;;0.90;99.90;;;;;;4649195;29;178051;-66
2020/12/11 15:30:03;;;;;;;44.13;20.73;;;0.90;99.90;;;;;;4649267;29;178451;-66
2020/12/11 15:32:30;;;;;;;41.30;20.50;;;0.90;99.90;;;;;;4648288;29;180718;-66
2020/12/11 15:34:56;;;;;;;41.07;20.13;;;0.90;99.90;;;;;;4649363;29;178694;-67
2020/12/11 15:37:23;;;;;;;43.83;20.83;;;0.80;99.90;;;;;;4648655;29;178339;-66
2020/12/11 15:39:49;;;;;;;43.37;20.67;;;0.80;99.90;;;;;;4648708;29;177204;-67
2020/12/11 15:42:16;;;;;;;45.40;20.43;;;0.90;99.90;;;;;;4648106;29;179319;-67
2020/12/11 15:44:42;;;;;;;47.37;21.43;;;0.90;99.90;;;;;;4649643;29;179797;-67
2020/12/11 15:47:09;;;;;;;43.17;21.10;;;0.80;99.90;;;;;;4647364;29;181525;-67
2020/12/11 15:49:35;;;;;;;68.90;23.13;;;0.80;99.90;;;;;;4649083;29;177885;-67
2020/12/11 15:52:02;;;;;;;49.67;22.10;;;0.80;99.90;;;;;;4647413;29;179269;-67
2020/12/11 15:54:28;;;;;;;57.17;22.70;;;0.90;99.90;;;;;;4647343;29;178584;-67
2020/12/11 15:56:54;;;;;;;57.23;22.63;;;0.80;99.90;;;;;;4648895;29;178750;-68
2020/12/11 15:59:20;;;;;;;53.20;22.30;;;0.80;99.90;;;;;;4645582;29;178064;-68
2020/12/11 16:01:47;;;;;;;49.43;23.00;;;0.80;99.90;;;;;;4645872;29;179539;-67
2020/12/11 16:04:14;;;;;;;52.77;24.47;;;0.80;99.90;;;;;;4647200;29;180137;-68
2020/12/11 16:06:40;;;;;;;53.03;22.87;;;0.90;99.90;;;;;;4646321;29;180189;-68
2020/12/11 16:09:07;;;;;;;59.53;25.23;;;0.90;99.90;;;;;;4647488;29;178746;-67
2020/12/11 16:11:34;;;;;;;57.03;24.43;;;0.80;99.90;;;;;;4642776;29;184634;-67
2020/12/11 16:14:00;;;;;;;53.60;23.97;;;0.80;99.90;;;;;;4646723;29;182877;-67
2020/12/11 16:16:27;;;;;;;57.87;24.37;;;0.90;99.90;;;;;;4644035;29;178680;-68
2020/12/11 16:18:55;;;;;;;67.40;27.37;;;0.80;99.90;;;;;;4647643;29;179138;-69
2020/12/11 16:21:22;;;;;;;69.00;25.57;;;0.80;99.90;;;;;;4647244;29;178987;-67
2020/12/11 16:23:48;;;;;;;56.83;26.23;;;0.80;99.90;;;;;;4647850;29;178483;-69
2020/12/11 16:26:14;;;;;;;59.03;25.67;;;0.80;99.90;;;;;;4648150;29;178798;-70
2020/12/11 16:28:52;;;;;;;55.17;24.30;;;0.80;99.90;;;;;;4649428;29;176387;-68
2020/12/11 16:31:18;;;;;;;63.03;25.60;;;0.80;99.90;;;;;;4647654;29;179771;-68
2020/12/11 16:34:03;;;;;;;63.47;25.70;;;0.80;99.90;;;;;;4647179;29;178584;-68
2020/12/11 16:36:29;;;;;;;59.17;26.07;;;0.80;99.90;;;;;;4645058;29;181639;-68
2020/12/11 16:38:56;;;;;;;66.67;26.03;;;0.80;99.90;;;;;;4648437;29;178027;-68
2020/12/11 16:41:38;;;;;;;61.30;26.57;;;0.80;99.90;;;;;;4644233;29;179884;-68
2020/12/11 16:44:14;;;;;;;56.23;27.67;;;0.80;99.90;;;;;;4647400;29;179017;-68
2020/12/11 16:46:40;;;;;;;64.60;27.10;;;0.80;99.90;;;;;;4643699;29;177979;-67
2020/12/11 16:49:13;;;;;;;61.73;27.00;;;0.80;99.90;;;;;;4643062;29;178024;-67
2020/12/11 16:51:39;;;;;;;69.47;28.40;;;0.80;99.90;;;;;;4647549;29;179521;-69
2020/12/11 16:54:05;;;;;;;62.33;27.47;;;0.80;99.90;;;;;;4654989;29;179425;-69
2020/12/11 16:56:32;;;;;;;67.90;28.90;;;0.80;99.90;;;;;;4645933;29;178516;-67
2020/12/11 16:59:01;;;;;;;75.30;29.83;;;0.80;99.90;;;;;;4648188;29;177891;-67
2020/12/11 17:01:33;;;;;;;72.40;30.10;;;0.80;99.90;;;;;;4643965;29;182684;-68
2020/12/11 17:06:38;;;;;;;65.80;29.97;;;0.80;99.90;;;;;;4647306;29;178860;-67
2020/12/11 17:09:11;;;;;;;70.10;29.93;;;0.80;99.90;;;;;;4646961;29;178491;-67
2020/12/11 17:11:39;;;;;;;65.53;27.50;;;0.80;99.90;;;;;;4646489;29;179753;-68
2020/12/11 17:14:05;;;;;;;83.77;29.67;;;0.80;99.90;;;;;;4646948;29;178662;-67
2020/12/11 17:16:32;;;;;;;62.70;27.63;;;0.70;99.90;;;;;;4646768;29;178609;-67
2020/12/11 17:18:58;;;;;;;66.33;29.30;;;0.80;99.90;;;;;;4647347;29;177233;-67
2020/12/11 17:21:26;;;;;;;65.13;29.43;;;0.70;99.90;;;;;;4645787;29;179878;-68
2020/12/11 17:23:52;;;;;;;64.67;27.30;;;0.70;99.90;;;;;;4646627;29;179160;-68
2020/12/11 17:26:32;;;;;;;63.83;27.50;;;0.70;99.90;;;;;;4644945;29;181328;-67
2020/12/11 17:29:02;;;;;;;63.10;28.47;;;0.70;99.90;;;;;;4648047;29;178348;-69
2020/12/11 17:31:36;;;;;;;64.40;27.63;;;0.70;99.90;;;;;;4646883;29;179093;-68
2020/12/11 17:36:42;;;;;;;62.50;27.00;;;0.70;99.90;;;;;;4638397;29;178600;-67
2020/12/11 17:39:09;;;;;;;58.30;26.17;;;0.70;99.90;;;;;;4646868;29;178798;-66
2020/12/11 17:41:36;;;;;;;54.17;26.40;;;0.70;99.90;;;;;;4645695;29;179163;-68
2020/12/11 17:44:03;;;;;;;61.40;28.53;;;0.70;99.90;;;;;;4647895;29;178313;-67
2020/12/11 17:46:36;;;;;;;63.73;28.53;;;0.70;99.90;;;;;;4647181;29;178594;-67
2020/12/11 17:49:03;;;;;;;57.30;27.77;;;0.70;99.90;;;;;;4646745;29;178372;-66
2020/12/11 17:51:29;;;;;;;57.13;27.53;;;0.70;99.90;;;;;;4644396;29;183632;-66
2020/12/11 17:53:55;;;;;;;59.83;27.67;;;0.70;99.90;;;;;;4645450;29;181753;-67
2020/12/11 17:56:23;;;;;;;63.37;28.60;;;0.70;99.90;;;;;;4646768;29;178101;-66
2020/12/11 17:58:49;;;;;;;69.63;27.63;;;0.70;99.90;;;;;;4647405;29;178050;-69
2020/12/11 18:01:15;;;;;;;72.97;31.60;;;0.70;99.90;;;;;;4645473;29;178870;-69
2020/12/11 18:03:41;;;;;;;66.73;28.47;;;0.70;99.90;;;;;;4646532;29;179421;-69
2020/12/11 18:06:08;;;;;;;72.67;29.27;;;0.70;99.90;;;;;;4646700;29;179090;-67
2020/12/11 18:08:34;;;;;;;62.83;29.20;;;0.70;99.90;;;;;;4647334;29;176901;-68
2020/12/11 18:11:00;;;;;;;68.70;29.43;;;0.70;99.90;;;;;;4646782;29;179447;-69
2020/12/11 18:13:26;;;;;;;94.27;49.00;;;0.70;99.90;;;;;;4645522;29;179075;-69
2020/12/11 18:15:52;;;;;;;63.60;27.00;;;0.70;99.90;;;;;;4645594;29;181917;-69
2020/12/11 18:18:18;;;;;;;63.73;27.87;;;0.70;99.90;;;;;;4646850;29;178892;-69
2020/12/11 18:20:45;;;;;;;69.13;29.73;;;0.60;99.90;;;;;;4646552;29;179354;-66
2020/12/11 18:23:11;;;;;;;67.27;30.20;;;0.70;99.90;;;;;;4645458;29;178587;-68
2020/12/11 18:25:40;;;;;;;54.60;25.77;;;0.70;99.90;;;;;;4646348;29;178662;-67
2020/12/11 18:28:07;;;;;;;70.07;45.73;;;0.70;99.90;;;;;;4646455;29;178060;-67
2020/12/11 18:30:36;;;;;;;54.37;26.83;;;0.70;99.90;;;;;;4646602;29;178719;-67
2020/12/11 18:33:06;;;;;;;63.20;27.03;;;0.70;99.90;;;;;;4645904;29;179297;-68
2020/12/11 18:35:34;;;;;;;55.40;26.67;;;0.70;99.90;;;;;;4646662;29;177860;-67
2020/12/11 18:38:00;;;;;;;62.33;28.03;;;0.60;99.90;;;;;;4646215;29;178449;-68